Time;durP1;ratioP1;P1;durP2;ratioP2;P2;SDS_P1;SDS_P2;PMS_P1;PMS_P2;Temp;Humidity;BMP_temperature;BMP_pressure;BME280_temperature;BME280_humidity;BME280_pressure;Samples;Min_cycle;Max_cycle;Signal;HPM_P1;HPM_P2
2023/08/03 00:01:06;;;;;;;5.70;4.50;;;;;;;22.24;100.00;99589.77;104982;1259;74451;-65
2023/08/03 00:03:34;;;;;;;6.90;5.10;;;;;;;22.17;100.00;99594.02;105321;1253;67427;-65
2023/08/03 00:06:02;;;;;;;7.30;5.10;;;;;;;22.04;100.00;99591.04;105168;1260;71459;-60
2023/08/03 00:08:30;;;;;;;7.90;5.50;;;;;;;21.86;100.00;99587.15;105279;1256;61653;-60
2023/08/03 00:11:00;;;;;;;9.70;6.10;;;;;;;21.74;100.00;99588.59;105257;1257;60537;-59
2023/08/03 00:13:28;;;;;;;8.00;5.30;;;;;;;21.63;100.00;99587.23;105397;1255;74372;-70
2023/08/03 00:15:56;;;;;;;8.80;5.60;;;;;;;21.55;100.00;99583.33;105337;1253;66919;-59
2023/08/03 00:18:24;;;;;;;14.20;6.40;;;;;;;21.51;100.00;99588.96;105222;1258;72778;-59
2023/08/03 00:20:52;;;;;;;7.80;5.90;;;;;;;21.48;100.00;99590.77;105546;1256;60576;-74
2023/08/03 00:23:20;;;;;;;7.80;5.80;;;;;;;21.47;100.00;99597.89;105518;1256;60541;-72
2023/08/03 00:25:48;;;;;;;8.40;6.40;;;;;;;21.41;100.00;99599.45;105228;1253;74527;-58
2023/08/03 00:28:17;;;;;;;8.10;7.00;;;;;;;21.36;100.00;99596.75;105193;1254;66883;-58
2023/08/03 00:30:45;;;;;;;7.20;5.90;;;;;;;21.33;100.00;99602.29;105221;1253;72889;-71
2023/08/03 00:33:13;;;;;;;8.60;6.30;;;;;;;21.29;100.00;99616.90;105311;1253;60925;-59
2023/08/03 00:35:40;;;;;;;9.10;6.10;;;;;;;21.24;100.00;99625.14;105498;1253;60595;-59
2023/08/03 00:38:08;;;;;;;9.50;6.50;;;;;;;21.16;100.00;99640.31;105238;1253;72678;-59
2023/08/03 00:40:36;;;;;;;8.30;5.90;;;;;;;21.06;100.00;99655.38;105269;1253;66881;-58
2023/08/03 00:43:04;;;;;;;11.00;7.00;;;;;;;21.00;100.00;99671.33;105246;1257;73339;-59
2023/08/03 00:45:32;;;;;;;7.80;5.30;;;;;;;20.96;100.00;99685.16;105612;1258;60473;-71
2023/08/03 00:48:00;;;;;;;10.40;6.20;;;;;;;20.93;100.00;99663.16;104956;1253;60651;-59
2023/08/03 00:50:28;;;;;;;8.10;5.50;;;;;;;20.89;100.00;99654.64;105264;1253;73852;-57
2023/08/03 00:52:58;;;;;;;7.20;5.00;;;;;;;20.87;100.00;99652.00;105278;1259;67832;-59
2023/08/03 00:55:26;;;;;;;8.30;4.60;;;;;;;20.82;100.00;99650.67;105356;1253;72743;-58
2023/08/03 00:57:53;;;;;;;9.70;5.40;;;;;;;20.79;100.00;99642.04;105187;1254;62214;-58
2023/08/03 01:00:21;;;;;;;7.90;5.60;;;;;;;20.78;100.00;99635.25;105252;1257;60531;-58
2023/08/03 01:02:49;;;;;;;9.30;5.50;;;;;;;20.71;100.00;99630.38;105258;1257;73855;-62
2023/08/03 01:05:17;;;;;;;6.90;5.20;;;;;;;20.66;100.00;99639.27;105266;1253;66739;-58
2023/08/03 01:07:44;;;;;;;7.40;4.40;;;;;;;20.59;100.00;99637.42;104983;1254;73160;-59
2023/08/03 01:10:12;;;;;;;5.80;4.00;;;;;;;20.51;100.00;99630.64;105028;1253;61723;-59
2023/08/03 01:12:40;;;;;;;6.00;4.60;;;;;;;20.46;100.00;99621.81;105284;1253;60489;-66
2023/08/03 01:15:08;;;;;;;7.70;4.10;;;;;;;20.41;100.00;99619.84;104855;1256;74325;-59
2023/08/03 01:17:36;;;;;;;5.00;4.20;;;;;;;20.36;100.00;99621.16;105261;1255;67405;-73
2023/08/03 01:20:05;;;;;;;9.70;5.30;;;;;;;20.35;100.00;99616.24;105242;1253;72863;-59
2023/08/03 01:22:51;;;;;;;6.70;5.30;;;;;;;20.34;100.00;99611.84;105245;1254;60536;-61
2023/08/03 01:25:19;;;;;;;7.90;5.40;;;;;;;20.32;100.00;99604.43;104936;1253;60342;-69
2023/08/03 01:27:49;;;;;;;6.10;5.40;;;;;;;20.32;100.00;99596.91;105415;1255;73849;-62
2023/08/03 01:30:17;;;;;;;7.20;4.70;;;;;;;20.31;100.00;99598.35;105549;1255;65649;-72
2023/08/03 01:32:45;;;;;;;7.00;5.30;;;;;;;20.33;100.00;99597.48;105212;1256;73687;-61
2023/08/03 01:35:13;;;;;;;8.70;5.60;;;;;;;20.35;100.00;99604.12;105474;1259;60496;-61
2023/08/03 01:37:41;;;;;;;8.90;5.40;;;;;;;20.37;100.00;99608.19;105137;1253;60664;-58
2023/08/03 01:40:12;;;;;;;8.10;5.50;;;;;;;20.38;100.00;99606.29;105330;1259;73891;-71
2023/08/03 01:42:40;;;;;;;5.80;4.80;;;;;;;20.34;100.00;99612.68;105059;1260;67086;-60
2023/08/03 01:45:08;;;;;;;7.20;5.10;;;;;;;20.31;100.00;99612.48;105173;1256;71792;-59
2023/08/03 01:47:36;;;;;;;10.80;6.00;;;;;;;20.31;100.00;99610.42;105197;1254;62306;-60
2023/08/03 01:50:05;;;;;;;7.90;5.00;;;;;;;20.31;100.00;99616.34;105102;1254;60465;-63
2023/08/03 01:52:32;;;;;;;8.90;4.80;;;;;;;20.31;100.00;99621.21;105038;1254;73866;-60
2023/08/03 01:55:00;;;;;;;7.10;5.50;;;;;;;20.32;100.00;99620.52;105206;1255;66961;-59
2023/08/03 01:57:28;;;;;;;6.40;5.10;;;;;;;20.31;100.00;99619.52;104734;1254;72978;-59
2023/08/03 01:59:56;;;;;;;6.10;5.00;;;;;;;20.28;100.00;99622.11;105082;1253;61727;-72
2023/08/03 02:02:23;;;;;;;6.80;5.50;;;;;;;20.24;100.00;99624.38;105067;1253;60560;-59
2023/08/03 02:04:51;;;;;;;8.40;5.50;;;;;;;20.24;100.00;99629.73;105363;1254;73947;-62
2023/08/03 02:07:46;;;;;;;5.50;4.60;;;;;;;20.23;100.00;99627.75;105459;1253;66962;-72
2023/08/03 02:10:14;;;;;;;7.20;5.40;;;;;;;20.26;100.00;99630.52;105036;1254;73080;-59
2023/08/03 02:12:42;;;;;;;9.00;5.40;;;;;;;20.26;100.00;99629.98;105139;1259;60531;-61
2023/08/03 02:15:10;;;;;;;7.00;5.50;;;;;;;20.27;100.00;99632.86;105315;1254;60537;-59
2023/08/03 02:17:38;;;;;;;8.10;5.40;;;;;;;20.27;100.00;99633.97;105190;1259;73884;-59
2023/08/03 02:20:07;;;;;;;8.70;5.50;;;;;;;20.27;100.00;99629.63;105349;1259;66340;-59
2023/08/03 02:22:35;;;;;;;6.70;4.90;;;;;;;20.28;100.00;99628.63;105119;1253;73168;-59
2023/08/03 02:25:03;;;;;;;5.60;5.00;;;;;;;20.29;100.00;99628.84;105506;1257;60423;-67
2023/08/03 02:27:31;;;;;;;9.20;4.80;;;;;;;20.31;100.00;99635.66;105338;1253;60514;-59
2023/08/03 02:29:59;;;;;;;7.00;4.60;;;;;;;20.34;100.00;99638.27;104962;1253;72738;-59
2023/08/03 02:32:27;;;;;;;7.00;5.10;;;;;;;20.38;100.00;99642.02;105360;1259;65655;-61
2023/08/03 02:34:55;;;;;;;6.50;4.80;;;;;;;20.40;100.00;99640.77;105061;1258;71434;-62
2023/08/03 02:37:24;;;;;;;6.80;4.90;;;;;;;20.43;100.00;99640.94;105068;1253;60497;-59
2023/08/03 02:39:52;;;;;;;7.30;4.80;;;;;;;20.45;100.00;99642.77;105471;1253;60477;-59
2023/08/03 02:42:21;;;;;;;15.00;5.00;;;;;;;20.49;100.00;99639.42;105115;1253;72678;-59
2023/08/03 02:44:49;;;;;;;8.30;5.00;;;;;;;20.54;100.00;99640.70;105209;1255;65419;-60
2023/08/03 02:47:17;;;;;;;6.60;4.50;;;;;;;20.61;100.00;99649.65;104954;1253;72500;-58
2023/08/03 02:49:46;;;;;;;6.90;4.90;;;;;;;20.66;100.00;99645.67;105380;1253;61713;-60
2023/08/03 02:52:14;;;;;;;6.60;5.00;;;;;;;20.71;100.00;99646.01;105187;1253;60479;-60
2023/08/03 02:54:45;;;;;;;10.40;6.20;;;;;;;20.77;100.00;99646.01;105298;1256;72060;-60
2023/08/03 02:57:13;;;;;;;10.20;5.20;;;;;;;20.82;100.00;99643.30;105053;1253;65584;-67
2023/08/03 02:59:40;;;;;;;8.00;5.70;;;;;;;20.89;100.00;99643.73;104779;1256;72861;-67
2023/08/03 03:02:09;;;;;;;5.90;5.10;;;;;;;20.96;100.00;99643.30;104870;1263;60806;-60
2023/08/03 03:04:37;;;;;;;6.10;5.20;;;;;;;21.06;100.00;99643.92;105290;1255;60440;-59
2023/08/03 03:07:05;;;;;;;9.10;5.80;;;;;;;21.21;100.00;99645.44;105176;1253;73893;-71
2023/08/03 03:09:34;;;;;;;7.00;5.20;;;;;;;21.35;100.00;99654.55;104715;1260;65745;-70
2023/08/03 03:12:02;;;;;;;7.60;5.10;;;;;;;21.49;100.00;99653.94;105051;1260;72770;-59
2023/08/03 03:14:37;;;;;;;6.80;5.40;;;;;;;21.84;100.00;99653.83;104892;1260;60579;-71
2023/08/03 03:17:06;;;;;;;7.60;5.40;;;;;;;22.24;100.00;99657.14;105183;1254;60541;-61
2023/08/03 03:19:34;;;;;;;8.20;5.10;;;;;;;22.56;100.00;99660.72;105370;1255;74692;-72
2023/08/03 03:22:05;;;;;;;5.30;4.40;;;;;;;22.89;100.00;99659.88;104927;1256;66923;-59
2023/08/03 03:24:33;;;;;;;6.40;4.70;;;;;;;23.20;100.00;99658.19;105140;1260;72751;-62
2023/08/03 03:27:01;;;;;;;5.70;4.50;;;;;;;23.60;100.00;99655.54;105256;1254;60544;-61
2023/08/03 03:29:30;;;;;;;5.90;4.90;;;;;;;24.23;100.00;99649.96;105311;1259;60682;-71
2023/08/03 03:31:59;;;;;;;6.50;4.40;;;;;;;25.03;100.00;99651.52;105120;1258;73868;-60
2023/08/03 03:34:32;;;;;;;4.60;4.10;;;;;;;25.99;100.00;99640.60;105151;1259;65527;-60
2023/08/03 03:37:01;;;;;;;5.20;4.50;;;;;;;27.00;100.00;99624.50;105510;1258;73290;-72
2023/08/03 03:39:29;;;;;;;9.20;4.30;;;;;;;27.96;100.00;99598.30;105307;1254;62108;-60
2023/08/03 03:41:58;;;;;;;5.60;3.90;;;;;;;28.92;100.00;99577.05;105226;1256;60345;-60
2023/08/03 03:44:27;;;;;;;5.80;3.70;;;;;;;29.83;100.00;99558.32;105325;1254;73467;-61
2023/08/03 03:46:54;;;;;;;4.50;3.40;;;;;;;30.63;100.00;99545.21;105122;1255;66887;-62
2023/08/03 03:49:23;;;;;;;4.90;3.50;;;;;;;31.34;100.00;99536.15;105139;1256;73189;-68
2023/08/03 03:51:51;;;;;;;5.30;3.50;;;;;;;32.06;100.00;99535.45;105010;1258;60969;-60
2023/08/03 03:54:19;;;;;;;5.00;3.50;;;;;;;32.77;100.00;99536.11;105167;1256;60406;-62
2023/08/03 03:56:48;;;;;;;5.20;3.20;;;;;;;33.51;100.00;99537.49;105309;1258;73852;-69
2023/08/03 03:59:16;;;;;;;4.30;3.60;;;;;;;34.21;100.00;99542.05;105286;1254;60539;-67
2023/08/03 04:01:43;;;;;;;4.70;3.40;;;;;;;34.92;100.00;99544.58;105209;1256;67465;-61
2023/08/03 04:04:12;;;;;;;4.80;3.80;;;;;;;35.56;100.00;99547.57;105146;1256;60448;-62
2023/08/03 04:06:39;;;;;;;4.10;3.70;;;;;;;36.14;100.00;99546.31;105227;1256;60508;-62
2023/08/03 04:09:07;;;;;;;4.00;3.40;;;;;;;36.60;100.00;99542.80;105134;1255;63703;-60
2023/08/03 04:11:35;;;;;;;4.50;3.60;;;;;;;36.96;99.87;99544.02;105223;1258;60719;-60
2023/08/03 04:14:03;;;;;;;4.70;3.90;;;;;;;37.38;93.24;99541.95;105197;1258;62511;-63
2023/08/03 04:16:31;;;;;;;6.90;4.20;;;;;;;37.78;77.82;99538.55;105122;1259;60540;-60
2023/08/03 04:18:59;;;;;;;4.90;4.10;;;;;;;38.30;72.03;99540.55;105582;1254;60435;-73
2023/08/03 04:21:26;;;;;;;5.10;4.20;;;;;;;38.61;69.04;99538.39;104757;1253;63855;-62
2023/08/03 04:23:55;;;;;;;5.20;4.70;;;;;;;38.73;68.20;99543.83;105147;1253;60528;-62
2023/08/03 04:26:23;;;;;;;5.40;4.70;;;;;;;38.91;63.12;99544.21;105492;1253;62550;-66
2023/08/03 04:28:52;;;;;;;5.60;4.80;;;;;;;39.06;60.44;99547.06;105224;1256;60425;-62
2023/08/03 04:31:19;;;;;;;5.00;4.30;;;;;;;39.35;59.12;99543.02;105371;1257;60287;-65
2023/08/03 04:33:51;;;;;;;5.40;4.80;;;;;;;39.86;56.81;99542.42;105039;1253;71975;-63
2023/08/03 04:36:20;;;;;;;5.80;5.00;;;;;;;40.16;51.98;99541.48;105130;1260;60398;-62
2023/08/03 04:38:48;;;;;;;6.00;4.70;;;;;;;40.09;48.86;99547.29;105304;1253;63841;-66
2023/08/03 04:41:20;;;;;;;5.10;4.60;;;;;;;39.71;49.29;99551.14;105498;1254;60808;-74
2023/08/03 04:43:49;;;;;;;6.50;4.80;;;;;;;39.61;51.05;99556.88;105265;1254;60588;-66
2023/08/03 04:46:18;;;;;;;5.10;4.40;;;;;;;39.84;52.87;99554.84;105395;1255;64963;-65
2023/08/03 04:48:46;;;;;;;6.10;4.90;;;;;;;40.18;52.95;99553.25;105207;1257;60435;-76
2023/08/03 04:51:14;;;;;;;5.50;4.60;;;;;;;40.43;49.70;99550.56;105143;1256;62470;-66
2023/08/03 04:53:45;;;;;;;5.50;4.70;;;;;;;40.71;46.55;99550.27;104977;1256;60982;-67
2023/08/03 05:04:19;;;;;;;5.80;5.20;;;;;;;41.20;41.54;99549.27;101780;1294;607884;-65
2023/08/03 05:06:47;;;;;;;7.40;5.80;;;;;;;41.20;40.99;99553.00;104701;1267;59251;-74
2023/08/03 05:09:15;;;;;;;5.90;5.30;;;;;;;41.25;40.83;99552.01;104549;1269;59246;-64
2023/08/03 05:11:42;;;;;;;6.10;5.50;;;;;;;41.02;39.83;99553.96;104787;1266;63648;-65
2023/08/03 05:14:09;;;;;;;5.40;4.90;;;;;;;40.80;41.32;99556.13;104724;1266;59264;-64
2023/08/03 05:16:36;;;;;;;7.50;5.10;;;;;;;40.89;40.73;99557.21;104552;1264;207293;-70
2023/08/03 05:19:04;;;;;;;6.50;5.80;;;;;;;41.10;40.37;99558.73;104892;1263;59601;-63
2023/08/03 05:21:31;;;;;;;6.90;5.30;;;;;;;41.34;40.17;99559.73;104909;1260;59428;-63
2023/08/03 05:23:59;;;;;;;5.70;5.10;;;;;;;41.41;38.86;99561.37;105228;1260;62403;-69
2023/08/03 05:26:26;;;;;;;5.50;5.00;;;;;;;41.07;39.84;99563.52;104928;1263;59330;-62
2023/08/03 05:28:53;;;;;;;5.60;4.90;;;;;;;41.06;41.08;99565.64;105042;1260;71735;-68
2023/08/03 05:31:20;;;;;;;6.20;5.60;;;;;;;41.54;41.37;99564.18;105089;1264;59798;-63
2023/08/03 05:33:47;;;;;;;6.10;4.90;;;;;;;42.10;39.36;99566.17;104780;1259;59609;-62
2023/08/03 05:36:15;;;;;;;5.90;5.00;;;;;;;42.53;36.99;99565.92;104982;1261;71875;-68
2023/08/03 05:38:41;;;;;;;5.90;5.20;;;;;;;42.61;36.27;99566.10;104639;1266;59657;-62
2023/08/03 05:41:15;;;;;;;5.80;5.20;;;;;;;42.58;36.17;99572.11;104617;1264;63993;-63
2023/08/03 05:43:42;;;;;;;5.70;5.20;;;;;;;42.16;36.21;99577.13;104940;1263;59545;-61
2023/08/03 05:46:12;;;;;;;7.00;5.70;;;;;;;41.62;37.51;99580.98;104973;1263;59628;-62
2023/08/03 05:48:39;;;;;;;7.40;6.80;;;;;;;41.17;39.75;99581.25;104914;1263;63412;-64
2023/08/03 05:51:06;;;;;;;6.70;5.60;;;;;;;40.90;41.42;99586.33;105161;1263;59832;-62
2023/08/03 05:53:33;;;;;;;6.50;5.60;;;;;;;40.85;43.69;99589.11;104810;1263;62782;-62
2023/08/03 05:56:00;;;;;;;7.20;6.60;;;;;;;41.10;43.49;99590.37;104884;1264;59646;-62
2023/08/03 05:58:39;;;;;;;7.30;6.30;;;;;;;41.28;41.62;99585.89;104591;1265;59925;-66
2023/08/03 06:01:07;;;;;;;10.80;6.50;;;;;;;41.17;42.29;99582.26;105251;1260;65209;-62
2023/08/03 06:03:34;;;;;;;8.20;6.60;;;;;;;41.18;42.30;99585.77;105247;1264;59580;-62
2023/08/03 06:06:03;;;;;;;7.10;6.40;;;;;;;41.44;42.46;99583.92;105210;1262;63951;-62
2023/08/03 06:08:30;;;;;;;6.50;5.90;;;;;;;41.83;41.25;99582.83;105049;1258;59669;-61
2023/08/03 06:11:01;;;;;;;7.10;6.40;;;;;;;41.96;39.08;99586.19;105340;1257;60159;-66
2023/08/03 06:13:36;;;;;;;8.20;7.40;;;;;;;41.87;39.76;99583.74;104972;1263;63105;-62
2023/08/03 06:16:13;;;;;;;6.80;6.20;;;;;;;42.03;39.81;99584.98;105009;1258;59742;-63
2023/08/03 06:18:52;;;;;;;7.70;6.90;;;;;;;42.39;39.21;99586.65;105529;1260;65787;-62
2023/08/03 06:21:19;;;;;;;6.90;6.20;;;;;;;42.60;38.14;99587.81;105331;1261;59771;-62
2023/08/03 06:23:54;;;;;;;7.60;6.40;;;;;;;42.58;37.68;99589.27;105094;1262;59618;-62
2023/08/03 06:26:21;;;;;;;8.20;7.00;;;;;;;42.50;37.67;99589.30;105262;1271;63242;-63
2023/08/03 06:28:53;;;;;;;6.90;6.20;;;;;;;42.61;38.14;99584.83;105254;1261;59637;-66
2023/08/03 06:31:32;;;;;;;6.70;6.00;;;;;;;42.64;38.03;99583.11;105042;1259;64066;-63
2023/08/03 06:33:58;;;;;;;7.40;6.50;;;;;;;42.69;37.76;99583.69;104694;1264;59746;-63
2023/08/03 06:36:26;;;;;;;7.60;6.90;;;;;;;42.71;37.21;99583.19;105442;1257;59678;-65
2023/08/03 06:38:57;;;;;;;7.60;6.60;;;;;;;42.70;37.02;99582.11;104993;1271;64306;-63
2023/08/03 06:41:24;;;;;;;6.90;6.30;;;;;;;42.67;36.28;99579.73;105780;1263;59679;-63
2023/08/03 06:43:54;;;;;;;7.40;6.80;;;;;;;42.52;36.91;99582.70;104919;1263;62923;-64
2023/08/03 06:46:22;;;;;;;7.60;6.90;;;;;;;42.50;38.74;99583.35;105646;1262;59690;-66
2023/08/03 06:48:50;;;;;;;7.10;6.40;;;;;;;42.63;39.26;99581.91;105217;1263;59895;-64
2023/08/03 06:51:17;;;;;;;7.40;6.70;;;;;;;42.88;37.32;99580.06;104933;1257;63165;-63
2023/08/03 06:53:44;;;;;;;7.80;7.10;;;;;;;42.90;36.90;99583.25;105103;1261;59503;-62
2023/08/03 06:56:11;;;;;;;7.60;6.90;;;;;;;42.62;36.06;99584.95;105168;1258;63542;-66
2023/08/03 06:58:38;;;;;;;7.00;6.40;;;;;;;42.54;36.29;99585.88;104991;1261;59624;-62
2023/08/03 07:01:06;;;;;;;7.80;6.60;;;;;;;42.58;36.92;99586.66;105290;1257;59630;-63
2023/08/03 07:03:33;;;;;;;7.90;6.60;;;;;;;42.54;37.09;99587.22;105074;1261;64400;-63
2023/08/03 07:06:00;;;;;;;7.90;7.20;;;;;;;42.41;37.47;99586.48;105157;1261;59545;-64
2023/08/03 07:08:27;;;;;;;7.40;6.70;;;;;;;42.41;38.33;99588.52;105357;1256;63975;-63
2023/08/03 07:10:54;;;;;;;7.70;6.80;;;;;;;42.60;37.47;99584.22;105814;1258;59657;-66
2023/08/03 07:13:22;;;;;;;7.70;7.00;;;;;;;42.90;37.17;99586.05;105359;1252;59739;-63
2023/08/03 07:15:49;;;;;;;7.30;6.50;;;;;;;43.25;36.03;99583.79;105442;1256;64451;-62
2023/08/03 07:18:15;;;;;;;7.30;6.70;;;;;;;43.47;33.96;99585.24;105415;1254;60311;-62
2023/08/03 07:20:42;;;;;;;8.70;6.40;;;;;;;43.67;34.12;99585.39;105455;1254;63592;-63
2023/08/03 07:23:09;;;;;;;7.90;7.00;;;;;;;43.87;33.58;99585.36;106151;1254;59720;-65
2023/08/03 07:25:36;;;;;;;7.00;6.10;;;;;;;43.82;32.96;99588.84;105754;1257;59487;-63
2023/08/03 07:28:04;;;;;;;7.00;6.30;;;;;;;43.63;33.27;99589.55;105855;1254;64311;-63
2023/08/03 07:30:34;;;;;;;7.90;6.80;;;;;;;43.57;33.64;99586.77;105840;1254;59802;-63
2023/08/03 07:33:01;;;;;;;7.50;6.80;;;;;;;43.50;33.57;99588.17;106062;1257;64407;-64
2023/08/03 07:35:29;;;;;;;7.60;6.40;;;;;;;43.43;33.30;99592.77;105790;1259;59758;-62
2023/08/03 07:37:55;;;;;;;7.10;6.40;;;;;;;43.40;33.52;99591.27;105710;1254;59630;-63
2023/08/03 07:40:22;;;;;;;6.60;6.00;;;;;;;43.37;33.65;99586.91;105753;1256;64324;-63
2023/08/03 07:42:49;;;;;;;7.00;6.10;;;;;;;43.44;32.33;99589.13;105948;1254;59642;-66
2023/08/03 07:45:16;;;;;;;5.80;5.20;;;;;;;43.40;32.29;99589.21;105780;1256;62983;-62
2023/08/03 07:48:03;;;;;;;5.80;5.30;;;;;;;43.36;31.56;99585.70;105634;1257;59606;-63
2023/08/03 07:50:31;;;;;;;6.20;4.80;;;;;;;43.34;31.17;99589.65;105695;1257;59576;-65
2023/08/03 07:52:58;;;;;;;5.40;4.90;;;;;;;43.29;30.65;99588.20;106015;1267;62987;-64
2023/08/03 07:55:24;;;;;;;5.40;4.80;;;;;;;43.33;31.33;99589.83;105726;1257;59624;-62
2023/08/03 07:57:51;;;;;;;4.90;4.50;;;;;;;43.46;30.69;99590.69;105774;1257;63887;-62
2023/08/03 08:00:20;;;;;;;5.80;5.30;;;;;;;43.59;30.59;99592.40;105803;1254;59617;-62
2023/08/03 08:02:47;;;;;;;6.00;4.90;;;;;;;43.57;31.12;99591.80;106026;1254;59719;-65
2023/08/03 08:05:14;;;;;;;5.00;4.50;;;;;;;43.53;30.73;99598.08;105469;1260;63197;-63
2023/08/03 08:07:42;;;;;;;4.60;4.10;;;;;;;43.53;29.96;99591.17;105429;1254;59628;-63
2023/08/03 08:10:11;;;;;;;4.90;4.00;;;;;;;43.55;29.72;99590.82;105385;1257;64104;-63
2023/08/03 08:12:38;;;;;;;5.40;4.40;;;;;;;43.49;29.20;99593.30;106317;1257;59635;-62
2023/08/03 08:15:05;;;;;;;5.00;4.60;;;;;;;43.48;29.36;99586.73;105865;1254;59778;-64
2023/08/03 08:17:32;;;;;;;4.40;4.00;;;;;;;43.40;28.26;99583.02;105946;1257;64443;-63
2023/08/03 08:19:59;;;;;;;7.60;5.50;;;;;;;43.05;28.50;99583.92;106048;1256;59611;-63
2023/08/03 08:22:26;;;;;;;4.90;4.40;;;;;;;42.75;29.79;99584.91;105733;1254;64165;-62
2023/08/03 08:24:54;;;;;;;6.90;5.00;;;;;;;42.47;30.26;99585.77;106340;1257;59640;-66
2023/08/03 08:27:21;;;;;;;4.70;4.30;;;;;;;42.33;31.68;99582.93;105808;1256;60144;-64
2023/08/03 08:29:48;;;;;;;5.10;4.60;;;;;;;42.45;32.59;99583.05;105974;1252;64640;-64
2023/08/03 08:32:15;;;;;;;7.00;4.60;;;;;;;42.58;31.81;99582.20;105656;1255;59582;-63
2023/08/03 08:34:42;;;;;;;6.80;4.30;;;;;;;42.57;30.55;99583.94;105409;1252;64015;-63
2023/08/03 08:37:09;;;;;;;4.20;3.70;;;;;;;42.38;30.46;99588.65;105387;1254;59525;-66
2023/08/03 08:39:36;;;;;;;4.70;3.60;;;;;;;42.24;30.18;99583.35;105552;1257;59637;-62
2023/08/03 08:42:13;;;;;;;4.80;4.20;;;;;;;42.24;30.22;99581.33;105582;1254;64761;-62
2023/08/03 08:44:40;;;;;;;4.50;4.10;;;;;;;42.30;30.65;99579.91;105597;1257;59539;-62
2023/08/03 08:47:07;;;;;;;4.20;3.80;;;;;;;42.51;31.67;99575.83;106323;1257;64099;-64
2023/08/03 08:49:34;;;;;;;4.10;3.40;;;;;;;42.71;29.99;99571.66;105729;1266;59480;-63
2023/08/03 08:52:04;;;;;;;5.10;4.10;;;;;;;42.71;29.72;99570.05;105966;1254;59640;-62
2023/08/03 08:54:32;;;;;;;4.50;4.00;;;;;;;42.73;30.04;99571.17;105677;1254;64099;-62
2023/08/03 08:57:02;;;;;;;7.50;5.00;;;;;;;42.62;29.66;99570.64;105841;1257;59573;-64
2023/08/03 08:59:42;;;;;;;4.90;3.80;;;;;;;42.27;29.81;99574.63;105622;1254;64244;-62
2023/08/03 09:02:10;;;;;;;4.80;4.20;;;;;;;41.70;30.72;99575.41;105748;1257;59664;-61
2023/08/03 09:04:37;;;;;;;5.30;4.10;;;;;;;41.11;31.36;99577.30;105942;1255;59599;-62
2023/08/03 09:07:04;;;;;;;4.50;4.00;;;;;;;40.39;31.63;99585.62;106056;1260;62886;-62
2023/08/03 09:09:33;;;;;;;5.40;4.20;;;;;;;39.72;33.30;99585.67;105818;1256;59307;-62
2023/08/03 09:12:00;;;;;;;5.00;4.50;;;;;;;39.48;35.16;99586.00;105601;1257;62776;-61
2023/08/03 09:14:28;;;;;;;5.00;4.30;;;;;;;39.58;35.69;99587.77;105678;1254;60450;-60
2023/08/03 09:17:22;;;;;;;4.80;4.30;;;;;;;39.82;34.65;99585.27;105791;1256;60261;-63
2023/08/03 09:19:51;;;;;;;6.20;4.10;;;;;;;40.10;34.54;99587.00;105811;1258;65984;-61
2023/08/03 09:22:24;;;;;;;4.40;3.80;;;;;;;40.15;32.65;99588.30;105640;1253;60905;-65
2023/08/03 09:25:08;;;;;;;6.40;4.00;;;;;;;40.09;32.11;99582.92;105725;1254;62719;-63
2023/08/03 09:27:36;;;;;;;4.80;4.40;;;;;;;40.10;33.77;99579.89;105623;1253;60447;-61
2023/08/03 09:30:06;;;;;;;5.20;4.10;;;;;;;40.24;34.05;99576.54;105680;1254;60522;-61
2023/08/03 09:32:36;;;;;;;4.90;4.40;;;;;;;40.53;33.38;99573.54;105662;1254;75794;-61
2023/08/03 09:35:24;;;;;;;5.50;4.30;;;;;;;40.84;33.09;99575.77;106149;1254;60414;-63
2023/08/03 09:37:55;;;;;;;4.80;4.20;;;;;;;41.20;32.00;99576.13;105545;1260;64113;-62
2023/08/03 09:40:23;;;;;;;4.90;4.20;;;;;;;41.52;31.27;99584.48;105538;1257;60485;-61
2023/08/03 09:42:50;;;;;;;4.60;4.10;;;;;;;41.67;30.01;99584.20;105935;1257;60322;-62
2023/08/03 09:45:17;;;;;;;4.40;3.90;;;;;;;41.53;29.51;99586.09;105792;1257;65175;-61
2023/08/03 09:47:49;;;;;;;4.40;4.00;;;;;;;41.28;30.51;99589.58;105659;1257;60623;-61
2023/08/03 09:50:16;;;;;;;5.90;4.40;;;;;;;41.03;31.26;99601.14;105593;1257;63945;-62
2023/08/03 09:52:46;;;;;;;4.60;4.10;;;;;;;40.82;31.09;99601.09;105825;1257;60364;-63
2023/08/03 09:55:30;;;;;;;4.90;4.40;;;;;;;40.84;31.33;99595.91;105678;1254;60577;-61
2023/08/03 09:58:03;;;;;;;4.40;3.80;;;;;;;40.78;30.91;99594.56;106175;1254;66688;-62
2023/08/03 10:00:30;;;;;;;4.20;3.80;;;;;;;40.65;31.77;99594.75;105748;1254;60332;-62
2023/08/03 10:03:15;;;;;;;4.90;4.20;;;;;;;40.67;32.09;99596.23;105758;1254;63864;-61
2023/08/03 10:05:52;;;;;;;5.50;4.40;;;;;;;40.79;32.32;99596.96;105594;1256;60425;-63
2023/08/03 10:08:54;;;;;;;4.50;3.80;;;;;;;40.86;31.66;99600.27;105845;1254;59343;-61
2023/08/03 10:11:22;;;;;;;4.70;4.30;;;;;;;40.89;32.71;99604.77;105563;1257;65238;-61
2023/08/03 10:13:49;;;;;;;5.00;4.50;;;;;;;40.94;31.39;99611.05;105800;1254;60335;-61
2023/08/03 10:16:17;;;;;;;5.10;4.50;;;;;;;40.88;31.50;99612.83;105620;1259;64114;-61
2023/08/03 10:18:44;;;;;;;6.70;4.20;;;;;;;40.83;32.35;99611.92;105895;1256;60361;-63
2023/08/03 10:21:26;;;;;;;5.80;4.60;;;;;;;40.75;32.63;99615.98;105670;1254;60453;-64
2023/08/03 10:24:13;;;;;;;5.00;4.10;;;;;;;40.70;32.71;99612.35;105544;1254;63857;-61
2023/08/03 10:26:41;;;;;;;5.00;4.30;;;;;;;40.64;31.67;99609.73;105671;1253;60523;-62
2023/08/03 10:29:08;;;;;;;6.50;5.40;;;;;;;40.40;32.53;99609.35;105930;1256;64117;-64
2023/08/03 10:31:53;;;;;;;4.90;4.40;;;;;;;40.22;33.47;99611.58;105888;1253;60441;-61
2023/08/03 10:34:26;;;;;;;5.70;4.20;;;;;;;40.19;33.68;99613.79;105821;1254;60423;-61
2023/08/03 10:36:55;;;;;;;5.10;3.90;;;;;;;40.23;33.91;99615.33;105709;1254;63853;-64
2023/08/03 10:39:51;;;;;;;6.30;4.90;;;;;;;40.35;32.97;99613.83;105807;1257;60323;-62
2023/08/03 10:42:35;;;;;;;5.90;4.50;;;;;;;40.34;32.94;99607.83;105933;1253;64131;-64
2023/08/03 10:45:21;;;;;;;5.80;4.50;;;;;;;40.38;33.66;99602.27;105696;1257;60370;-63
2023/08/03 10:47:49;;;;;;;4.70;4.20;;;;;;;40.59;32.23;99599.55;105687;1256;60753;-64
2023/08/03 10:50:16;;;;;;;5.10;4.60;;;;;;;40.68;31.69;99598.64;105618;1259;65249;-62
2023/08/03 10:52:43;;;;;;;5.70;5.20;;;;;;;40.56;32.74;99602.00;105862;1256;67101;-64
2023/08/03 10:55:26;;;;;;;5.10;4.00;;;;;;;40.49;33.85;99603.14;105472;1253;62482;-61
2023/08/03 10:57:56;;;;;;;5.80;4.50;;;;;;;40.48;33.53;99604.69;105820;1257;60322;-62
2023/08/03 11:00:23;;;;;;;4.80;4.30;;;;;;;40.50;33.25;99608.35;105721;1254;60415;-61
2023/08/03 11:02:50;;;;;;;5.50;4.30;;;;;;;40.60;32.43;99610.25;105736;1256;65929;-61
2023/08/03 11:05:18;;;;;;;5.70;4.90;;;;;;;40.56;32.93;99609.88;105805;1254;60335;-61
2023/08/03 11:07:45;;;;;;;6.00;4.00;;;;;;;40.45;32.37;99610.02;105795;1256;62809;-62
2023/08/03 11:10:14;;;;;;;4.80;4.40;;;;;;;40.34;32.48;99610.80;105824;1257;60507;-62
2023/08/03 11:12:42;;;;;;;5.20;4.70;;;;;;;40.24;32.33;99608.76;105954;1254;60367;-64
2023/08/03 11:15:14;;;;;;;5.90;4.60;;;;;;;40.24;33.12;99607.52;105780;1253;64802;-62
2023/08/03 11:17:41;;;;;;;4.90;4.40;;;;;;;40.38;34.23;99602.96;105775;1253;60527;-63
2023/08/03 11:20:08;;;;;;;5.90;5.40;;;;;;;40.47;34.16;99600.95;105708;1256;64136;-60
2023/08/03 11:22:35;;;;;;;5.20;4.60;;;;;;;40.58;33.17;99598.08;105792;1252;60422;-61
2023/08/03 11:25:04;;;;;;;5.70;4.40;;;;;;;40.55;31.60;99599.73;105872;1253;60427;-63
2023/08/03 11:27:31;;;;;;;5.50;4.70;;;;;;;40.37;31.14;99600.56;105563;1252;64244;-65
2023/08/03 11:29:59;;;;;;;4.80;4.40;;;;;;;40.24;31.14;99606.49;105852;1257;60434;-62
2023/08/03 11:32:30;;;;;;;4.70;4.10;;;;;;;40.22;31.79;99607.14;105811;1254;62704;-61
2023/08/03 11:35:03;;;;;;;5.30;4.80;;;;;;;40.17;32.21;99607.31;106490;1253;59072;-65
2023/08/03 11:37:34;;;;;;;5.30;4.90;;;;;;;40.11;32.15;99606.48;105652;1253;60428;-63
2023/08/03 11:40:04;;;;;;;5.70;5.10;;;;;;;40.00;31.92;99601.85;105842;1253;64072;-60